createdAt,value
2023-01-19T00:01:06.596Z,6.13
2023-01-19T00:04:18.539Z,5.15
2023-01-19T00:07:20.578Z,6.23
2023-01-19T00:10:50.597Z,6.25
2023-01-19T00:14:02.699Z,5.23
2023-01-19T00:17:14.561Z,4.40
2023-01-19T00:20:14.601Z,3.57
2023-01-19T00:23:39.585Z,4.40
2023-01-19T00:26:53.603Z,4.77
2023-01-19T00:30:05.576Z,4.00
2023-01-19T00:33:20.651Z,4.85
2023-01-19T00:36:33.614Z,3.70
2023-01-19T00:39:33.661Z,3.93
2023-01-19T00:42:59.899Z,3.63
2023-01-19T00:45:59.694Z,3.70
2023-01-19T00:49:11.705Z,3.47
2023-01-19T00:52:14.636Z,2.60
2023-01-19T00:55:40.335Z,3.35
2023-01-19T00:58:54.690Z,3.93
2023-01-19T01:02:07.874Z,3.03
2023-01-19T01:05:07.869Z,3.00
2023-01-19T01:08:22.749Z,3.43
2023-01-19T01:11:22.727Z,3.07
2023-01-19T01:14:49.687Z,3.20
2023-01-19T01:18:05.755Z,3.50
2023-01-19T01:21:29.745Z,3.87
2023-01-19T01:24:29.718Z,4.13
2023-01-19T01:27:41.814Z,3.80
2023-01-19T01:30:55.756Z,4.43
2023-01-19T01:34:07.784Z,4.40
2023-01-19T01:37:07.745Z,4.03
2023-01-19T01:40:32.851Z,4.33
2023-01-19T01:43:33.773Z,4.60
2023-01-19T01:46:59.853Z,4.73
2023-01-19T01:50:25.829Z,4.65
2023-01-19T01:53:49.843Z,4.13
2023-01-19T01:57:02.800Z,4.95
2023-01-19T02:00:26.941Z,5.43
2023-01-19T02:03:41.124Z,4.80
2023-01-19T02:06:58.485Z,4.77
2023-01-19T02:10:15.797Z,4.90
2023-01-19T02:13:31.920Z,5.03
2023-01-19T02:16:59.692Z,5.00
2023-01-19T02:20:13.969Z,5.20
2023-01-19T02:23:41.973Z,5.27
2023-01-19T02:26:55.993Z,5.17
2023-01-19T02:30:19.951Z,5.40
2023-01-19T02:33:32.000Z,4.93
2023-01-19T02:36:55.984Z,5.40
2023-01-19T02:40:07.982Z,4.93
2023-01-19T02:43:33.996Z,5.17
2023-01-19T02:46:49.038Z,5.30
2023-01-19T02:50:19.048Z,5.20
2023-01-19T02:53:32.064Z,5.70
2023-01-19T02:56:59.995Z,5.90
2023-01-19T03:00:15.067Z,5.45
2023-01-19T03:03:41.103Z,6.60
2023-01-19T03:06:56.089Z,5.40
2023-01-19T03:10:20.118Z,6.40
2023-01-19T03:13:32.053Z,5.85
2023-01-19T03:16:58.120Z,7.20
2023-01-19T03:20:10.106Z,7.30
2023-01-19T03:23:35.088Z,7.10
2023-01-19T03:26:47.168Z,7.17
2023-01-19T03:30:11.192Z,6.95
2023-01-19T03:33:25.175Z,6.90
2023-01-19T03:36:49.148Z,7.30
2023-01-19T03:40:01.130Z,6.63
2023-01-19T03:43:25.191Z,7.20
2023-01-19T03:46:43.230Z,7.13
2023-01-19T03:50:09.242Z,6.40
2023-01-19T03:53:27.167Z,6.60
2023-01-19T03:56:39.237Z,6.53
2023-01-19T03:59:52.271Z,5.97
2023-01-19T04:03:00.768Z,6.07
2023-01-19T04:06:26.285Z,8.03
2023-01-19T04:09:26.242Z,6.90
2023-01-19T04:12:38.283Z,6.50
2023-01-19T04:15:50.439Z,5.57
2023-01-19T04:19:16.292Z,6.40
2023-01-19T04:22:30.324Z,5.77
2023-01-19T04:25:55.333Z,5.83
2023-01-19T04:29:07.385Z,5.63
2023-01-19T04:32:20.297Z,5.45
2023-01-19T04:35:21.401Z,5.07
2023-01-19T04:38:46.312Z,4.60
2023-01-19T04:41:46.491Z,4.80
2023-01-19T04:44:59.353Z,4.70
2023-01-19T04:47:59.441Z,5.03
2023-01-19T04:51:14.355Z,3.50
2023-01-19T04:54:28.568Z,5.15
2023-01-19T04:57:40.499Z,3.97
2023-01-19T05:00:43.466Z,4.33
2023-01-19T05:03:55.414Z,4.30
2023-01-19T05:06:55.458Z,4.40
2023-01-19T05:10:21.475Z,4.60
2023-01-19T05:13:21.444Z,4.07
2023-01-19T05:16:46.436Z,4.40
2023-01-19T05:19:46.475Z,4.00
2023-01-19T05:23:13.482Z,3.97
2023-01-19T05:26:27.449Z,3.60
2023-01-19T05:29:52.541Z,4.37
2023-01-19T05:33:04.570Z,3.60
2023-01-19T05:36:17.584Z,4.20
2023-01-19T05:39:17.538Z,4.00
2023-01-19T05:42:43.503Z,3.83
2023-01-19T05:45:43.551Z,4.77
2023-01-19T05:48:56.607Z,4.67
2023-01-19T05:52:08.636Z,4.83
2023-01-19T05:55:21.610Z,3.97
2023-01-19T05:58:34.578Z,3.50
2023-01-19T06:01:47.655Z,3.70
2023-01-19T06:05:01.670Z,4.70
2023-01-19T06:08:01.651Z,7.07
2023-01-19T06:11:13.646Z,3.37
2023-01-19T06:14:27.653Z,4.67
2023-01-19T06:17:39.679Z,3.60
2023-01-19T06:20:39.680Z,3.80
2023-01-19T06:23:52.688Z,11.90
2023-01-19T06:26:52.744Z,5.83
2023-01-19T06:30:18.663Z,3.43
2023-01-19T06:33:18.758Z,2.90
2023-01-19T06:36:30.728Z,3.00
2023-01-19T06:39:30.744Z,4.55
2023-01-19T06:42:43.715Z,3.83
2023-01-19T06:45:57.783Z,2.40
2023-01-19T06:49:09.790Z,2.53
2023-01-19T06:52:09.759Z,2.77
2023-01-19T06:55:33.740Z,2.53
2023-01-19T06:58:33.788Z,3.33
2023-01-19T07:02:00.007Z,2.47
2023-01-19T07:04:59.825Z,2.67
2023-01-19T07:08:11.827Z,2.20
2023-01-19T07:11:32.827Z,2.67
2023-01-19T07:14:36.790Z,2.30
2023-01-19T07:17:50.927Z,2.90
2023-01-19T07:21:02.865Z,6.45
2023-01-19T07:24:14.883Z,2.30
2023-01-19T07:27:26.830Z,2.73
2023-01-19T07:30:28.020Z,3.70
2023-01-19T07:33:52.890Z,1.97
2023-01-19T07:36:52.933Z,2.60
2023-01-19T07:40:04.927Z,1.50
2023-01-19T07:43:04.931Z,1.53
2023-01-19T07:46:28.972Z,1.77
2023-01-19T07:49:42.932Z,3.00
2023-01-19T07:53:10.019Z,0.95
2023-01-19T07:56:10.164Z,4.35
2023-01-19T07:59:33.981Z,2.27
2023-01-19T08:02:34.024Z,4.57
2023-01-19T08:05:59.035Z,4.43
2023-01-19T08:08:59.032Z,5.07
2023-01-19T08:12:11.164Z,4.40
2023-01-19T08:15:11.024Z,5.30
2023-01-19T08:18:23.962Z,3.10
2023-01-19T08:21:37.026Z,4.67
2023-01-19T08:24:52.046Z,4.33
2023-01-19T08:27:52.077Z,2.00
2023-01-19T08:31:19.213Z,4.27
2023-01-19T08:34:10.098Z,2.37
2023-01-19T08:37:37.141Z,3.40
2023-01-19T08:40:37.133Z,5.10
2023-01-19T08:43:51.091Z,2.37
2023-01-19T08:46:51.073Z,2.83
2023-01-19T08:50:03.114Z,2.77
2023-01-19T08:53:17.139Z,4.55
2023-01-19T08:56:41.192Z,0.80
2023-01-19T08:59:41.223Z,1.80
2023-01-19T09:02:54.197Z,5.40
2023-01-19T09:05:54.215Z,4.30
2023-01-19T09:09:20.161Z,3.93
2023-01-19T09:12:20.305Z,1.30
2023-01-19T09:15:32.214Z,3.27
2023-01-19T09:18:44.232Z,1.33
2023-01-19T09:21:56.274Z,5.70
2023-01-19T09:25:10.211Z,4.17
2023-01-19T09:28:34.297Z,2.70
2023-01-19T09:31:34.278Z,1.20
2023-01-19T09:34:46.274Z,5.25
2023-01-19T09:37:46.273Z,6.00
2023-01-19T09:41:12.298Z,4.37
2023-01-19T09:44:24.332Z,5.20
2023-01-19T09:47:48.251Z,6.87
2023-01-19T09:51:00.350Z,7.63
2023-01-19T09:54:27.366Z,2.40
2023-01-19T09:57:41.366Z,3.33
2023-01-19T10:01:05.420Z,7.57
2023-01-19T10:04:45.413Z,5.80
2023-01-19T10:07:58.899Z,5.43
2023-01-19T10:11:22.355Z,3.30
2023-01-19T10:14:36.401Z,5.50
2023-01-19T10:18:02.858Z,2.07
2023-01-19T10:21:14.431Z,3.17
2023-01-19T10:24:38.445Z,4.57
2023-01-19T10:27:51.470Z,3.57
2023-01-19T10:31:18.480Z,7.00
2023-01-19T10:34:42.520Z,6.27
2023-01-19T10:37:54.509Z,3.20
2023-01-19T10:41:07.533Z,4.75
2023-01-19T10:44:32.539Z,6.93
2023-01-19T10:47:46.534Z,5.90
2023-01-19T10:50:58.526Z,3.07
2023-01-19T10:54:17.496Z,3.10
2023-01-19T10:57:46.557Z,3.73
2023-01-19T11:00:59.573Z,5.47
2023-01-19T11:04:25.611Z,6.97
2023-01-19T11:07:38.650Z,5.17
2023-01-19T11:10:51.619Z,5.63
2023-01-19T11:14:03.589Z,5.77
2023-01-19T11:17:15.603Z,2.20
2023-01-19T11:20:29.601Z,4.85
2023-01-19T11:23:54.590Z,2.20
2023-01-19T11:27:06.575Z,7.87
2023-01-19T11:30:31.627Z,4.43
2023-01-19T11:33:50.719Z,3.90
2023-01-19T11:37:14.642Z,5.63
2023-01-19T11:40:26.635Z,9.13
2023-01-19T11:43:52.644Z,3.20
2023-01-19T11:47:07.748Z,3.37
2023-01-19T11:50:31.766Z,2.43
2023-01-19T11:53:48.714Z,5.37
2023-01-19T11:57:15.703Z,2.70
2023-01-19T12:00:27.763Z,9.05
2023-01-19T12:03:54.700Z,5.55
2023-01-19T12:07:04.766Z,5.00
2023-01-19T12:10:32.763Z,2.10
2023-01-19T12:13:47.791Z,5.03
2023-01-19T12:16:59.778Z,4.70
2023-01-19T12:20:11.802Z,2.75
2023-01-19T12:23:38.775Z,3.90
2023-01-19T12:27:04.781Z,1.40
2023-01-19T12:30:29.903Z,1.70
2023-01-19T12:33:47.857Z,1.77
2023-01-19T12:37:03.851Z,2.15
2023-01-19T12:40:18.810Z,3.90
2023-01-19T12:43:43.906Z,3.55
2023-01-19T12:46:55.856Z,1.47
2023-01-19T12:50:19.906Z,5.70
2023-01-19T12:53:39.883Z,1.50
2023-01-19T12:57:07.884Z,5.57
2023-01-19T13:00:21.946Z,3.80
2023-01-19T13:03:52.961Z,3.87
2023-01-19T13:07:12.867Z,3.30
2023-01-19T13:10:44.971Z,3.97
2023-01-19T13:13:56.942Z,2.77
2023-01-19T13:17:23.918Z,2.40
2023-01-19T13:20:45.943Z,1.20
2023-01-19T13:24:15.895Z,1.53
2023-01-19T13:27:34.947Z,3.73
2023-01-19T13:31:04.161Z,1.03
2023-01-19T13:34:18.073Z,4.13
2023-01-19T13:37:42.035Z,1.35
2023-01-19T13:40:55.082Z,2.85
2023-01-19T13:44:22.000Z,2.60
2023-01-19T13:47:35.068Z,1.77
2023-01-19T13:51:02.016Z,0.80
2023-01-19T13:54:20.096Z,0.30
2023-01-19T13:57:50.103Z,4.00
2023-01-19T14:00:50.135Z,1.80
2023-01-19T14:04:15.131Z,5.40
2023-01-19T14:07:34.230Z,5.30
2023-01-19T14:10:59.098Z,2.27
2023-01-19T14:13:59.160Z,4.47
2023-01-19T14:17:23.172Z,3.20
2023-01-19T14:20:38.120Z,2.90
2023-01-19T14:24:13.099Z,2.50
2023-01-19T14:27:44.208Z,2.30
2023-01-19T14:31:18.247Z,1.90
2023-01-19T14:34:58.224Z,2.10
2023-01-19T14:38:10.152Z,0.75
2023-01-19T14:41:23.215Z,1.30
2023-01-19T14:44:48.245Z,1.75
2023-01-19T14:48:00.200Z,2.07
2023-01-19T14:51:25.257Z,2.73
2023-01-19T14:54:37.300Z,0.83
2023-01-19T14:58:03.303Z,0.70
2023-01-19T15:01:15.400Z,0.30
2023-01-19T15:04:27.281Z,1.83
2023-01-19T15:07:41.296Z,2.20
2023-01-19T15:11:05.268Z,1.40
2023-01-19T15:14:19.307Z,3.07
2023-01-19T15:17:43.308Z,3.30
2023-01-19T15:20:43.323Z,1.17
2023-01-19T15:24:07.304Z,1.35
2023-01-19T15:27:19.424Z,2.07
2023-01-19T15:30:46.541Z,2.13
2023-01-19T15:33:49.409Z,0.95
2023-01-19T15:37:01.551Z,2.30
2023-01-19T15:40:01.472Z,0.70
2023-01-19T15:43:13.459Z,3.85
2023-01-19T15:46:30.393Z,1.40
2023-01-19T15:49:43.374Z,1.50
2023-01-19T15:52:46.407Z,2.03
2023-01-19T15:56:10.464Z,4.53
2023-01-19T15:59:22.481Z,0.93
2023-01-19T16:02:48.541Z,4.05
2023-01-19T16:06:00.497Z,4.30
2023-01-19T16:09:00.513Z,0.80
2023-01-19T16:12:15.525Z,1.20
2023-01-19T16:15:27.515Z,4.20
2023-01-19T16:18:54.573Z,1.45
2023-01-19T16:22:06.485Z,4.10
2023-01-19T16:25:19.787Z,4.70
2023-01-19T16:28:19.502Z,2.90
2023-01-19T16:31:31.636Z,2.60
2023-01-19T16:34:45.535Z,1.53
2023-01-19T16:38:09.615Z,3.45
2023-01-19T16:41:09.543Z,1.40
2023-01-19T16:44:34.639Z,3.05
2023-01-19T16:47:46.594Z,2.13
2023-01-19T16:51:14.641Z,0.67
2023-01-19T16:54:14.587Z,2.10
2023-01-19T16:57:29.622Z,3.90
2023-01-19T17:00:30.627Z,1.47
2023-01-19T17:03:42.655Z,1.55
2023-01-19T17:06:59.673Z,1.13
2023-01-19T17:10:13.059Z,4.13
2023-01-19T17:13:12.714Z,1.60
2023-01-19T17:16:24.677Z,1.77
2023-01-19T17:19:36.661Z,5.50
2023-01-19T17:23:02.721Z,1.80
2023-01-19T17:26:17.683Z,1.60
2023-01-19T17:29:41.766Z,2.20
2023-01-19T17:32:53.702Z,1.60
2023-01-19T17:36:05.800Z,0.93
2023-01-19T17:39:18.725Z,0.65
2023-01-19T17:42:33.777Z,1.10
2023-01-19T17:45:33.744Z,2.63
2023-01-19T17:48:46.770Z,0.90
2023-01-19T17:51:58.767Z,0.73
2023-01-19T17:55:26.863Z,3.23
2023-01-19T17:58:26.816Z,1.33
2023-01-19T18:01:53.921Z,0.83
2023-01-19T18:05:05.925Z,1.10
2023-01-19T18:08:05.862Z,0.90
2023-01-19T18:11:31.839Z,2.83
2023-01-19T18:14:31.834Z,2.40
2023-01-19T18:17:55.889Z,0.70
2023-01-19T18:20:55.911Z,1.27
2023-01-19T18:24:22.933Z,1.80
2023-01-19T18:27:36.916Z,3.80
2023-01-19T18:31:01.016Z,1.83
2023-01-19T18:34:12.953Z,0.80
2023-01-19T18:37:24.947Z,0.70
2023-01-19T18:40:25.920Z,2.70
2023-01-19T18:43:52.989Z,2.97
2023-01-19T18:47:04.927Z,2.95
2023-01-19T18:50:28.913Z,0.80
2023-01-19T18:53:40.959Z,2.37
2023-01-19T18:56:54.029Z,2.50
2023-01-19T19:00:08.009Z,1.25
2023-01-19T19:03:33.020Z,1.10
2023-01-19T19:06:44.996Z,2.65
2023-01-19T19:09:57.071Z,1.17
2023-01-19T19:12:57.112Z,1.97
2023-01-19T19:16:28.069Z,1.50
2023-01-19T19:19:28.099Z,2.77
2023-01-19T19:22:41.131Z,1.95
2023-01-19T19:25:41.060Z,4.05
2023-01-19T19:28:54.126Z,3.33
2023-01-19T19:32:09.050Z,1.60
2023-01-19T19:35:22.147Z,2.83
2023-01-19T19:38:22.070Z,1.70
2023-01-19T19:41:46.186Z,4.25
2023-01-19T19:44:46.133Z,2.25
2023-01-19T19:48:12.182Z,2.70
2023-01-19T19:51:36.159Z,1.23
2023-01-19T19:54:48.143Z,5.10
2023-01-19T19:58:00.233Z,1.67
2023-01-19T20:01:27.640Z,3.30
2023-01-19T20:04:55.272Z,1.95
2023-01-19T20:08:08.264Z,2.35
2023-01-19T20:11:32.322Z,1.30
2023-01-19T20:14:44.208Z,2.50
2023-01-19T20:17:56.290Z,2.07
2023-01-19T20:21:10.273Z,1.80
2023-01-19T20:24:34.316Z,3.90
2023-01-19T20:27:37.293Z,3.47
2023-01-19T20:30:49.289Z,1.57
2023-01-19T20:34:01.376Z,2.10
2023-01-19T20:37:26.294Z,2.47
2023-01-19T20:40:29.292Z,1.27
2023-01-19T20:43:54.371Z,1.13
2023-01-19T20:47:06.754Z,1.45
2023-01-19T20:50:22.419Z,1.33
2023-01-19T20:53:36.337Z,4.37
2023-01-19T20:56:48.410Z,1.00
2023-01-19T20:59:48.444Z,3.87
2023-01-19T21:03:00.336Z,2.15
2023-01-19T21:06:01.417Z,1.70
2023-01-19T21:09:27.350Z,1.13
2023-01-19T21:12:27.468Z,4.63
2023-01-19T21:15:39.407Z,1.00
2023-01-19T21:18:51.491Z,1.00
2023-01-19T21:22:03.371Z,2.55
2023-01-19T21:25:17.459Z,1.20
2023-01-19T21:28:41.472Z,1.20
2023-01-19T21:31:53.616Z,0.97
2023-01-19T21:35:05.443Z,1.20
2023-01-19T21:38:05.466Z,1.40
2023-01-19T21:41:31.460Z,1.70
2023-01-19T21:44:31.521Z,1.75
2023-01-19T21:47:44.487Z,1.80
2023-01-19T21:50:44.561Z,2.87
2023-01-19T21:53:56.521Z,2.20
2023-01-19T21:57:10.608Z,2.97
2023-01-19T22:00:26.502Z,3.20
2023-01-19T22:03:38.592Z,2.33
2023-01-19T22:06:50.558Z,2.63
2023-01-19T22:10:02.651Z,3.80
2023-01-19T22:13:16.671Z,4.20
2023-01-19T22:16:40.633Z,2.83
2023-01-19T22:19:40.766Z,4.13
2023-01-19T22:22:53.642Z,4.23
2023-01-19T22:25:53.751Z,3.90
2023-01-19T22:29:19.652Z,4.80
2023-01-19T22:32:19.681Z,4.90
2023-01-19T22:35:31.635Z,6.90
2023-01-19T22:38:31.720Z,4.90
2023-01-19T22:41:56.648Z,4.80
2023-01-19T22:45:10.654Z,9.67
2023-01-19T22:48:22.752Z,4.97
2023-01-19T22:51:40.795Z,6.60
2023-01-19T22:54:52.804Z,6.95
2023-01-19T22:57:52.760Z,9.47
2023-01-19T23:01:17.915Z,5.90
2023-01-19T23:04:29.756Z,5.95
2023-01-19T23:07:45.825Z,6.60
2023-01-19T23:11:02.831Z,7.95
2023-01-19T23:14:26.805Z,7.33
2023-01-19T23:17:40.852Z,8.50
2023-01-19T23:20:52.837Z,7.95
2023-01-19T23:24:04.819Z,7.93
2023-01-19T23:27:16.863Z,7.70
2023-01-19T23:30:16.807Z,7.43
2023-01-19T23:33:42.824Z,9.83
2023-01-19T23:36:55.833Z,7.90
2023-01-19T23:40:08.866Z,9.40
2023-01-19T23:43:08.935Z,8.37
2023-01-19T23:46:45.181Z,11.50
2023-01-19T23:49:47.911Z,7.40
2023-01-19T23:53:12.932Z,9.53
2023-01-19T23:56:25.000Z,8.70
2023-01-19T23:59:36.961Z,7.37
